Terminal Aerodrome Forecast
Issued by NWS Goodland, KS

Home | Current Version | Previous Version | Text Only | Print | Product List | Glossary On
Versions: 1 2 3 4 5 6 7 8 9 10 11 12 13 14 15
000
FTUS43 KGLD 211738
TAFGLD
TAF
KGLD 211738Z 2118/2218 01013G24KT 1 1/2SM -FZDZ OVC003
      TEMPO 2118/2121 3SM BR
     FM212100 01020G30KT 1SM -SN BLSN OVC003
      TEMPO 2123/2203 1/2SM SN BLSN OVC002
     FM220300 33029G40KT 1/2SM SN BLSN OVC005
     FM221000 33023G36KT 1SM BLSN BKN025
     FM221400 33020G31KT 2SM BLSN SCT090
     FM221700 32018G29KT P6SM FEW200=

USA.gov is the U.S. government's official web portal to all federal, state and local government web resources and services.